sensor_id;sensor_type;location;lat;lon;timestamp;temperature;humidity
43679;DHT22;29279;50.858;4.392;2023-12-22T00:01:21;10.20;99.90
43679;DHT22;29279;50.858;4.392;2023-12-22T00:03:47;10.10;99.90
43679;DHT22;29279;50.858;4.392;2023-12-22T00:06:12;10.00;99.90
43679;DHT22;29279;50.858;4.392;2023-12-22T00:08:38;9.90;99.90
43679;DHT22;29279;50.858;4.392;2023-12-22T00:11:04;9.90;99.90
43679;DHT22;29279;50.858;4.392;2023-12-22T00:13:30;9.80;99.90
43679;DHT22;29279;50.858;4.392;2023-12-22T00:15:58;9.80;99.90
43679;DHT22;29279;50.858;4.392;2023-12-22T00:18:23;9.90;99.90
43679;DHT22;29279;50.858;4.392;2023-12-22T00:20:49;9.90;99.90
43679;DHT22;29279;50.858;4.392;2023-12-22T00:23:15;9.90;99.90
43679;DHT22;29279;50.858;4.392;2023-12-22T00:25:40;9.90;99.90
43679;DHT22;29279;50.858;4.392;2023-12-22T00:28:06;9.90;99.90
43679;DHT22;29279;50.858;4.392;2023-12-22T00:30:31;9.90;99.90
43679;DHT22;29279;50.858;4.392;2023-12-22T00:32:57;9.80;99.90
43679;DHT22;29279;50.858;4.392;2023-12-22T00:35:23;9.80;99.90
43679;DHT22;29279;50.858;4.392;2023-12-22T00:37:48;9.70;99.90
43679;DHT22;29279;50.858;4.392;2023-12-22T00:40:14;9.60;99.90
43679;DHT22;29279;50.858;4.392;2023-12-22T00:42:40;9.50;99.90
43679;DHT22;29279;50.858;4.392;2023-12-22T00:45:06;9.40;99.90
43679;DHT22;29279;50.858;4.392;2023-12-22T00:47:31;9.40;99.90
43679;DHT22;29279;50.858;4.392;2023-12-22T00:50:00;9.30;99.90
43679;DHT22;29279;50.858;4.392;2023-12-22T00:52:25;9.20;99.90
43679;DHT22;29279;50.858;4.392;2023-12-22T00:54:52;9.20;99.90
43679;DHT22;29279;50.858;4.392;2023-12-22T00:57:17;9.20;99.90
43679;DHT22;29279;50.858;4.392;2023-12-22T00:59:43;9.10;99.90
43679;DHT22;29279;50.858;4.392;2023-12-22T01:02:16;9.10;99.90
43679;DHT22;29279;50.858;4.392;2023-12-22T01:04:42;9.10;99.90
43679;DHT22;29279;50.858;4.392;2023-12-22T01:07:08;9.10;99.90
43679;DHT22;29279;50.858;4.392;2023-12-22T01:09:34;9.10;99.90
43679;DHT22;29279;50.858;4.392;2023-12-22T01:12:01;9.10;99.90
43679;DHT22;29279;50.858;4.392;2023-12-22T01:14:29;9.20;99.90
43679;DHT22;29279;50.858;4.392;2023-12-22T01:16:55;9.10;99.90
43679;DHT22;29279;50.858;4.392;2023-12-22T01:19:20;9.20;99.90
43679;DHT22;29279;50.858;4.392;2023-12-22T01:21:46;9.20;99.90
43679;DHT22;29279;50.858;4.392;2023-12-22T01:24:12;9.20;99.90
43679;DHT22;29279;50.858;4.392;2023-12-22T01:26:37;9.30;99.90
43679;DHT22;29279;50.858;4.392;2023-12-22T01:29:03;9.30;99.90
43679;DHT22;29279;50.858;4.392;2023-12-22T01:31:29;9.30;99.90
43679;DHT22;29279;50.858;4.392;2023-12-22T01:33:54;9.30;99.90
43679;DHT22;29279;50.858;4.392;2023-12-22T01:36:20;9.40;99.90
43679;DHT22;29279;50.858;4.392;2023-12-22T01:38:46;9.40;99.90
43679;DHT22;29279;50.858;4.392;2023-12-22T01:41:11;9.40;99.90
43679;DHT22;29279;50.858;4.392;2023-12-22T01:43:37;9.40;99.90
43679;DHT22;29279;50.858;4.392;2023-12-22T01:46:03;9.40;99.90
43679;DHT22;29279;50.858;4.392;2023-12-22T01:48:30;9.40;99.90
43679;DHT22;29279;50.858;4.392;2023-12-22T01:50:56;9.40;99.90
43679;DHT22;29279;50.858;4.392;2023-12-22T01:53:24;9.40;99.90
43679;DHT22;29279;50.858;4.392;2023-12-22T01:55:52;9.50;99.90
43679;DHT22;29279;50.858;4.392;2023-12-22T01:58:19;9.40;99.90
43679;DHT22;29279;50.858;4.392;2023-12-22T02:00:45;9.40;99.90
43679;DHT22;29279;50.858;4.392;2023-12-22T02:03:12;9.40;99.90
43679;DHT22;29279;50.858;4.392;2023-12-22T02:05:41;9.40;99.90
43679;DHT22;29279;50.858;4.392;2023-12-22T02:08:07;9.40;99.90
43679;DHT22;29279;50.858;4.392;2023-12-22T02:10:33;9.40;99.90
43679;DHT22;29279;50.858;4.392;2023-12-22T02:12:58;9.40;99.90
43679;DHT22;29279;50.858;4.392;2023-12-22T02:15:24;9.40;99.90
43679;DHT22;29279;50.858;4.392;2023-12-22T02:18:02;9.40;99.90
43679;DHT22;29279;50.858;4.392;2023-12-22T02:20:30;9.40;99.90
43679;DHT22;29279;50.858;4.392;2023-12-22T02:22:57;9.40;99.90
43679;DHT22;29279;50.858;4.392;2023-12-22T02:25:23;9.30;99.90
43679;DHT22;29279;50.858;4.392;2023-12-22T02:27:50;9.30;99.90
43679;DHT22;29279;50.858;4.392;2023-12-22T02:30:45;9.30;99.90
43679;DHT22;29279;50.858;4.392;2023-12-22T02:33:15;9.40;99.90
43679;DHT22;29279;50.858;4.392;2023-12-22T02:35:42;9.30;99.90
43679;DHT22;29279;50.858;4.392;2023-12-22T02:38:08;9.30;99.90
43679;DHT22;29279;50.858;4.392;2023-12-22T02:40:35;9.40;99.90
43679;DHT22;29279;50.858;4.392;2023-12-22T02:43:02;9.40;99.90
43679;DHT22;29279;50.858;4.392;2023-12-22T02:45:28;9.40;99.90
43679;DHT22;29279;50.858;4.392;2023-12-22T02:47:55;9.40;99.90
43679;DHT22;29279;50.858;4.392;2023-12-22T02:50:21;9.40;99.90
43679;DHT22;29279;50.858;4.392;2023-12-22T02:52:47;9.50;99.90
43679;DHT22;29279;50.858;4.392;2023-12-22T02:55:13;9.50;99.90
43679;DHT22;29279;50.858;4.392;2023-12-22T02:57:38;9.50;99.90
43679;DHT22;29279;50.858;4.392;2023-12-22T03:00:05;9.40;99.90
43679;DHT22;29279;50.858;4.392;2023-12-22T03:02:31;9.40;99.90
43679;DHT22;29279;50.858;4.392;2023-12-22T03:04:56;9.40;99.90
43679;DHT22;29279;50.858;4.392;2023-12-22T03:07:22;9.40;99.90
43679;DHT22;29279;50.858;4.392;2023-12-22T03:09:47;9.40;99.90
43679;DHT22;29279;50.858;4.392;2023-12-22T03:12:14;9.40;99.90
43679;DHT22;29279;50.858;4.392;2023-12-22T03:14:40;9.40;99.90
43679;DHT22;29279;50.858;4.392;2023-12-22T03:17:06;9.40;99.90
43679;DHT22;29279;50.858;4.392;2023-12-22T03:19:33;9.40;99.90
43679;DHT22;29279;50.858;4.392;2023-12-22T03:21:59;9.30;99.90
43679;DHT22;29279;50.858;4.392;2023-12-22T03:24:26;9.30;99.90
43679;DHT22;29279;50.858;4.392;2023-12-22T03:26:53;9.30;99.90
43679;DHT22;29279;50.858;4.392;2023-12-22T03:29:19;9.20;99.90
43679;DHT22;29279;50.858;4.392;2023-12-22T03:31:45;9.20;99.90
43679;DHT22;29279;50.858;4.392;2023-12-22T03:34:11;9.20;99.90
43679;DHT22;29279;50.858;4.392;2023-12-22T03:36:37;9.20;99.90
43679;DHT22;29279;50.858;4.392;2023-12-22T03:39:04;9.20;99.90
43679;DHT22;29279;50.858;4.392;2023-12-22T03:41:30;9.20;99.90
43679;DHT22;29279;50.858;4.392;2023-12-22T03:43:56;9.10;99.90
43679;DHT22;29279;50.858;4.392;2023-12-22T03:46:22;9.10;99.90
43679;DHT22;29279;50.858;4.392;2023-12-22T03:48:49;9.10;99.90
43679;DHT22;29279;50.858;4.392;2023-12-22T03:51:15;9.10;99.90
43679;DHT22;29279;50.858;4.392;2023-12-22T03:53:41;9.10;99.90
43679;DHT22;29279;50.858;4.392;2023-12-22T03:56:08;9.10;99.90
43679;DHT22;29279;50.858;4.392;2023-12-22T03:58:34;9.10;99.90
43679;DHT22;29279;50.858;4.392;2023-12-22T04:01:00;9.10;99.90
43679;DHT22;29279;50.858;4.392;2023-12-22T04:03:26;9.10;99.90
43679;DHT22;29279;50.858;4.392;2023-12-22T04:05:51;9.10;99.90
43679;DHT22;29279;50.858;4.392;2023-12-22T04:08:17;9.10;99.90
43679;DHT22;29279;50.858;4.392;2023-12-22T04:10:43;9.10;99.90
43679;DHT22;29279;50.858;4.392;2023-12-22T04:13:09;9.10;99.90
43679;DHT22;29279;50.858;4.392;2023-12-22T04:15:35;9.00;99.90
43679;DHT22;29279;50.858;4.392;2023-12-22T04:18:01;9.00;99.90
43679;DHT22;29279;50.858;4.392;2023-12-22T04:20:26;8.90;99.90
43679;DHT22;29279;50.858;4.392;2023-12-22T04:22:52;8.90;99.90
43679;DHT22;29279;50.858;4.392;2023-12-22T04:25:18;8.80;99.90
43679;DHT22;29279;50.858;4.392;2023-12-22T04:27:43;8.80;99.90
43679;DHT22;29279;50.858;4.392;2023-12-22T04:30:10;8.80;99.90
43679;DHT22;29279;50.858;4.392;2023-12-22T04:32:36;8.80;99.90
43679;DHT22;29279;50.858;4.392;2023-12-22T04:35:02;8.90;99.90
43679;DHT22;29279;50.858;4.392;2023-12-22T04:37:27;8.90;99.90
43679;DHT22;29279;50.858;4.392;2023-12-22T04:39:53;8.80;99.90
43679;DHT22;29279;50.858;4.392;2023-12-22T04:42:19;8.70;99.90
43679;DHT22;29279;50.858;4.392;2023-12-22T04:44:45;8.60;99.90
43679;DHT22;29279;50.858;4.392;2023-12-22T04:47:10;8.60;99.90
43679;DHT22;29279;50.858;4.392;2023-12-22T04:49:38;8.60;99.90
43679;DHT22;29279;50.858;4.392;2023-12-22T04:52:03;8.60;99.90
43679;DHT22;29279;50.858;4.392;2023-12-22T04:54:29;8.70;99.90
43679;DHT22;29279;50.858;4.392;2023-12-22T04:56:55;8.70;99.90
43679;DHT22;29279;50.858;4.392;2023-12-22T04:59:21;8.70;99.90
43679;DHT22;29279;50.858;4.392;2023-12-22T05:01:46;8.70;99.90
43679;DHT22;29279;50.858;4.392;2023-12-22T05:04:12;8.70;99.90
43679;DHT22;29279;50.858;4.392;2023-12-22T05:06:38;8.70;99.90
43679;DHT22;29279;50.858;4.392;2023-12-22T05:09:04;8.70;99.90
43679;DHT22;29279;50.858;4.392;2023-12-22T05:11:30;8.80;99.90
43679;DHT22;29279;50.858;4.392;2023-12-22T05:13:55;8.80;99.90
43679;DHT22;29279;50.858;4.392;2023-12-22T05:16:21;8.80;99.90
43679;DHT22;29279;50.858;4.392;2023-12-22T05:18:47;9.00;99.90
43679;DHT22;29279;50.858;4.392;2023-12-22T05:21:13;9.00;99.90
43679;DHT22;29279;50.858;4.392;2023-12-22T05:23:40;9.10;99.90
43679;DHT22;29279;50.858;4.392;2023-12-22T05:26:05;9.10;99.90
43679;DHT22;29279;50.858;4.392;2023-12-22T05:28:32;9.20;99.90
43679;DHT22;29279;50.858;4.392;2023-12-22T05:30:58;9.20;99.90
43679;DHT22;29279;50.858;4.392;2023-12-22T05:33:23;9.20;99.90
43679;DHT22;29279;50.858;4.392;2023-12-22T05:35:49;9.20;99.90
43679;DHT22;29279;50.858;4.392;2023-12-22T05:38:14;9.30;99.90
43679;DHT22;29279;50.858;4.392;2023-12-22T05:40:40;9.30;99.90
43679;DHT22;29279;50.858;4.392;2023-12-22T05:43:06;9.30;99.90
43679;DHT22;29279;50.858;4.392;2023-12-22T05:45:32;9.40;99.90
43679;DHT22;29279;50.858;4.392;2023-12-22T05:47:58;9.40;99.90
43679;DHT22;29279;50.858;4.392;2023-12-22T05:50:23;9.40;99.90
43679;DHT22;29279;50.858;4.392;2023-12-22T05:52:49;9.40;99.90
43679;DHT22;29279;50.858;4.392;2023-12-22T05:55:15;9.40;99.90
43679;DHT22;29279;50.858;4.392;2023-12-22T05:57:40;9.40;99.90
43679;DHT22;29279;50.858;4.392;2023-12-22T06:00:07;9.50;99.90
43679;DHT22;29279;50.858;4.392;2023-12-22T06:02:35;9.50;99.90
43679;DHT22;29279;50.858;4.392;2023-12-22T06:05:01;9.50;99.90
43679;DHT22;29279;50.858;4.392;2023-12-22T06:07:27;9.40;99.90
43679;DHT22;29279;50.858;4.392;2023-12-22T06:09:52;9.40;99.90
43679;DHT22;29279;50.858;4.392;2023-12-22T06:12:18;9.40;99.90
43679;DHT22;29279;50.858;4.392;2023-12-22T06:14:44;9.40;99.90
43679;DHT22;29279;50.858;4.392;2023-12-22T06:17:09;9.40;99.90
43679;DHT22;29279;50.858;4.392;2023-12-22T06:19:36;9.40;99.90
43679;DHT22;29279;50.858;4.392;2023-12-22T06:22:01;9.40;99.90
43679;DHT22;29279;50.858;4.392;2023-12-22T06:24:27;9.40;99.90
43679;DHT22;29279;50.858;4.392;2023-12-22T06:26:53;9.40;99.90
43679;DHT22;29279;50.858;4.392;2023-12-22T06:29:19;9.40;99.90
43679;DHT22;29279;50.858;4.392;2023-12-22T06:31:44;9.40;99.90
43679;DHT22;29279;50.858;4.392;2023-12-22T06:34:10;9.50;99.90
43679;DHT22;29279;50.858;4.392;2023-12-22T06:36:36;9.40;99.90
43679;DHT22;29279;50.858;4.392;2023-12-22T06:39:01;9.40;99.90
43679;DHT22;29279;50.858;4.392;2023-12-22T06:41:31;9.50;99.90
43679;DHT22;29279;50.858;4.392;2023-12-22T06:43:58;9.50;99.90
43679;DHT22;29279;50.858;4.392;2023-12-22T06:46:26;9.50;99.90
43679;DHT22;29279;50.858;4.392;2023-12-22T06:48:53;9.50;99.90
43679;DHT22;29279;50.858;4.392;2023-12-22T06:51:29;9.50;99.90
43679;DHT22;29279;50.858;4.392;2023-12-22T06:53:58;9.50;99.90
43679;DHT22;29279;50.858;4.392;2023-12-22T06:56:27;9.40;99.90
43679;DHT22;29279;50.858;4.392;2023-12-22T06:58:54;9.40;99.90
43679;DHT22;29279;50.858;4.392;2023-12-22T07:01:22;9.40;99.90
43679;DHT22;29279;50.858;4.392;2023-12-22T07:03:49;9.40;99.90
43679;DHT22;29279;50.858;4.392;2023-12-22T07:06:15;9.50;99.90
43679;DHT22;29279;50.858;4.392;2023-12-22T07:08:42;9.40;99.90
43679;DHT22;29279;50.858;4.392;2023-12-22T07:11:09;9.50;99.90
43679;DHT22;29279;50.858;4.392;2023-12-22T07:13:34;9.40;99.90
43679;DHT22;29279;50.858;4.392;2023-12-22T07:16:00;9.40;99.90
43679;DHT22;29279;50.858;4.392;2023-12-22T07:18:28;9.40;99.90
43679;DHT22;29279;50.858;4.392;2023-12-22T07:20:56;9.40;99.90
43679;DHT22;29279;50.858;4.392;2023-12-22T07:23:23;9.40;99.90
43679;DHT22;29279;50.858;4.392;2023-12-22T07:25:48;9.40;99.90
43679;DHT22;29279;50.858;4.392;2023-12-22T07:28:14;9.40;99.90
43679;DHT22;29279;50.858;4.392;2023-12-22T07:30:41;9.50;99.90
43679;DHT22;29279;50.858;4.392;2023-12-22T07:33:06;9.60;99.90
43679;DHT22;29279;50.858;4.392;2023-12-22T07:35:32;9.60;99.90
43679;DHT22;29279;50.858;4.392;2023-12-22T07:37:58;9.70;99.90
43679;DHT22;29279;50.858;4.392;2023-12-22T07:40:23;9.70;99.90
43679;DHT22;29279;50.858;4.392;2023-12-22T07:42:49;9.70;99.90
43679;DHT22;29279;50.858;4.392;2023-12-22T07:45:16;9.70;99.90
43679;DHT22;29279;50.858;4.392;2023-12-22T07:47:42;9.70;99.90
43679;DHT22;29279;50.858;4.392;2023-12-22T07:50:08;9.70;99.90
43679;DHT22;29279;50.858;4.392;2023-12-22T07:52:35;9.70;99.90
43679;DHT22;29279;50.858;4.392;2023-12-22T07:55:08;9.70;99.90
43679;DHT22;29279;50.858;4.392;2023-12-22T07:57:37;9.60;99.90
43679;DHT22;29279;50.858;4.392;2023-12-22T08:00:04;9.70;99.90
43679;DHT22;29279;50.858;4.392;2023-12-22T08:02:30;9.70;99.90
43679;DHT22;29279;50.858;4.392;2023-12-22T08:04:56;9.70;99.90
43679;DHT22;29279;50.858;4.392;2023-12-22T08:07:22;9.70;99.90
43679;DHT22;29279;50.858;4.392;2023-12-22T08:09:48;9.70;99.90
43679;DHT22;29279;50.858;4.392;2023-12-22T08:12:13;9.70;99.90
43679;DHT22;29279;50.858;4.392;2023-12-22T08:14:39;9.70;99.90
43679;DHT22;29279;50.858;4.392;2023-12-22T08:17:04;9.70;99.90
43679;DHT22;29279;50.858;4.392;2023-12-22T08:19:30;9.70;99.90
43679;DHT22;29279;50.858;4.392;2023-12-22T08:21:56;9.70;99.90
43679;DHT22;29279;50.858;4.392;2023-12-22T08:24:22;9.80;99.90
43679;DHT22;29279;50.858;4.392;2023-12-22T08:26:47;9.70;99.90
43679;DHT22;29279;50.858;4.392;2023-12-22T08:29:13;9.70;99.90
43679;DHT22;29279;50.858;4.392;2023-12-22T08:31:39;9.70;99.90
43679;DHT22;29279;50.858;4.392;2023-12-22T08:34:05;9.70;99.90
43679;DHT22;29279;50.858;4.392;2023-12-22T08:36:31;9.70;99.90
43679;DHT22;29279;50.858;4.392;2023-12-22T08:38:57;9.80;99.90
43679;DHT22;29279;50.858;4.392;2023-12-22T08:41:24;9.80;99.90
43679;DHT22;29279;50.858;4.392;2023-12-22T08:43:49;9.80;99.90
43679;DHT22;29279;50.858;4.392;2023-12-22T08:46:15;9.70;99.90
43679;DHT22;29279;50.858;4.392;2023-12-22T08:48:42;9.80;99.90
43679;DHT22;29279;50.858;4.392;2023-12-22T08:51:07;9.80;99.90
43679;DHT22;29279;50.858;4.392;2023-12-22T08:53:33;9.90;99.90
43679;DHT22;29279;50.858;4.392;2023-12-22T08:56:02;9.90;99.90
43679;DHT22;29279;50.858;4.392;2023-12-22T08:58:29;9.90;99.90
43679;DHT22;29279;50.858;4.392;2023-12-22T09:00:55;10.00;99.90
43679;DHT22;29279;50.858;4.392;2023-12-22T09:03:20;10.00;99.90
43679;DHT22;29279;50.858;4.392;2023-12-22T09:05:46;10.00;99.90
43679;DHT22;29279;50.858;4.392;2023-12-22T09:08:12;10.00;99.90
43679;DHT22;29279;50.858;4.392;2023-12-22T09:10:38;10.10;99.90
43679;DHT22;29279;50.858;4.392;2023-12-22T09:13:04;10.10;99.90
43679;DHT22;29279;50.858;4.392;2023-12-22T09:15:30;10.10;99.90
43679;DHT22;29279;50.858;4.392;2023-12-22T09:17:55;10.10;99.90
43679;DHT22;29279;50.858;4.392;2023-12-22T09:20:22;10.10;99.90
43679;DHT22;29279;50.858;4.392;2023-12-22T09:22:48;10.10;99.90
43679;DHT22;29279;50.858;4.392;2023-12-22T09:25:13;10.10;99.90
43679;DHT22;29279;50.858;4.392;2023-12-22T09:27:39;10.10;99.90
43679;DHT22;29279;50.858;4.392;2023-12-22T09:30:05;10.10;99.90
43679;DHT22;29279;50.858;4.392;2023-12-22T09:32:34;10.20;99.90
43679;DHT22;29279;50.858;4.392;2023-12-22T09:35:00;10.20;99.90
43679;DHT22;29279;50.858;4.392;2023-12-22T09:37:26;10.20;99.90
43679;DHT22;29279;50.858;4.392;2023-12-22T09:39:52;10.20;99.90
43679;DHT22;29279;50.858;4.392;2023-12-22T09:42:20;10.20;99.90
43679;DHT22;29279;50.858;4.392;2023-12-22T09:44:49;10.30;99.90
43679;DHT22;29279;50.858;4.392;2023-12-22T09:47:16;10.30;99.90
43679;DHT22;29279;50.858;4.392;2023-12-22T09:49:43;10.30;99.90
43679;DHT22;29279;50.858;4.392;2023-12-22T09:52:10;10.40;99.90
43679;DHT22;29279;50.858;4.392;2023-12-22T09:54:37;10.40;99.90
43679;DHT22;29279;50.858;4.392;2023-12-22T09:57:05;10.40;99.90
43679;DHT22;29279;50.858;4.392;2023-12-22T09:59:32;10.50;99.90
43679;DHT22;29279;50.858;4.392;2023-12-22T10:02:00;10.50;99.90
43679;DHT22;29279;50.858;4.392;2023-12-22T10:04:26;10.60;99.90
43679;DHT22;29279;50.858;4.392;2023-12-22T10:06:53;10.60;99.90
43679;DHT22;29279;50.858;4.392;2023-12-22T10:09:23;10.50;99.90
43679;DHT22;29279;50.858;4.392;2023-12-22T10:11:50;10.50;99.90
43679;DHT22;29279;50.858;4.392;2023-12-22T10:14:17;10.50;99.90
43679;DHT22;29279;50.858;4.392;2023-12-22T10:16:51;10.60;99.90
43679;DHT22;29279;50.858;4.392;2023-12-22T10:19:18;10.60;99.90
43679;DHT22;29279;50.858;4.392;2023-12-22T10:21:43;10.60;99.90
43679;DHT22;29279;50.858;4.392;2023-12-22T10:24:36;10.60;99.90
43679;DHT22;29279;50.858;4.392;2023-12-22T10:27:02;10.60;99.90
43679;DHT22;29279;50.858;4.392;2023-12-22T10:29:31;10.60;99.90
43679;DHT22;29279;50.858;4.392;2023-12-22T10:31:57;10.60;99.90
43679;DHT22;29279;50.858;4.392;2023-12-22T10:34:23;10.60;99.90
43679;DHT22;29279;50.858;4.392;2023-12-22T10:36:49;10.60;99.90
43679;DHT22;29279;50.858;4.392;2023-12-22T10:39:15;10.60;99.90
43679;DHT22;29279;50.858;4.392;2023-12-22T10:41:41;10.50;99.90
43679;DHT22;29279;50.858;4.392;2023-12-22T10:44:06;10.50;99.90
43679;DHT22;29279;50.858;4.392;2023-12-22T10:46:34;10.50;99.90
43679;DHT22;29279;50.858;4.392;2023-12-22T10:49:01;10.50;99.90
43679;DHT22;29279;50.858;4.392;2023-12-22T10:51:28;10.50;99.90
43679;DHT22;29279;50.858;4.392;2023-12-22T10:53:58;10.50;99.90
43679;DHT22;29279;50.858;4.392;2023-12-22T10:56:25;10.50;99.90
43679;DHT22;29279;50.858;4.392;2023-12-22T10:58:51;10.40;99.90
43679;DHT22;29279;50.858;4.392;2023-12-22T11:01:18;10.40;99.90
43679;DHT22;29279;50.858;4.392;2023-12-22T11:03:48;10.40;99.90
43679;DHT22;29279;50.858;4.392;2023-12-22T11:06:15;10.40;99.90
43679;DHT22;29279;50.858;4.392;2023-12-22T11:08:43;10.40;99.90
43679;DHT22;29279;50.858;4.392;2023-12-22T11:11:16;10.40;99.90
43679;DHT22;29279;50.858;4.392;2023-12-22T11:13:45;10.40;99.90
43679;DHT22;29279;50.858;4.392;2023-12-22T11:16:12;10.40;99.90
43679;DHT22;29279;50.858;4.392;2023-12-22T11:18:38;10.40;99.90
43679;DHT22;29279;50.858;4.392;2023-12-22T11:21:06;10.40;99.90
43679;DHT22;29279;50.858;4.392;2023-12-22T11:23:32;10.40;99.90
43679;DHT22;29279;50.858;4.392;2023-12-22T11:25:59;10.50;99.90
43679;DHT22;29279;50.858;4.392;2023-12-22T11:28:26;10.50;99.90
43679;DHT22;29279;50.858;4.392;2023-12-22T11:30:52;10.50;99.90
43679;DHT22;29279;50.858;4.392;2023-12-22T11:33:20;10.50;99.90
43679;DHT22;29279;50.858;4.392;2023-12-22T11:35:48;10.50;99.90
43679;DHT22;29279;50.858;4.392;2023-12-22T11:38:15;10.50;99.90
43679;DHT22;29279;50.858;4.392;2023-12-22T11:40:41;10.50;99.90
43679;DHT22;29279;50.858;4.392;2023-12-22T11:43:08;10.60;99.90
43679;DHT22;29279;50.858;4.392;2023-12-22T11:45:35;10.60;99.90
43679;DHT22;29279;50.858;4.392;2023-12-22T11:48:10;10.60;99.90
43679;DHT22;29279;50.858;4.392;2023-12-22T11:50:39;10.60;99.90
43679;DHT22;29279;50.858;4.392;2023-12-22T11:53:38;10.70;99.90
43679;DHT22;29279;50.858;4.392;2023-12-22T11:56:11;10.70;99.90
43679;DHT22;29279;50.858;4.392;2023-12-22T11:58:43;10.70;99.90
43679;DHT22;29279;50.858;4.392;2023-12-22T12:01:17;10.70;99.90
43679;DHT22;29279;50.858;4.392;2023-12-22T12:03:55;10.70;99.90
43679;DHT22;29279;50.858;4.392;2023-12-22T12:08:55;10.70;99.90
43679;DHT22;29279;50.858;4.392;2023-12-22T12:11:21;10.70;99.90
43679;DHT22;29279;50.858;4.392;2023-12-22T12:13:48;10.80;99.90
43679;DHT22;29279;50.858;4.392;2023-12-22T12:16:17;10.80;99.90
43679;DHT22;29279;50.858;4.392;2023-12-22T12:18:45;10.90;99.90
43679;DHT22;29279;50.858;4.392;2023-12-22T12:21:11;10.90;99.90
43679;DHT22;29279;50.858;4.392;2023-12-22T12:23:37;10.90;99.90
43679;DHT22;29279;50.858;4.392;2023-12-22T12:26:06;10.90;99.90
43679;DHT22;29279;50.858;4.392;2023-12-22T12:28:34;10.90;99.90
43679;DHT22;29279;50.858;4.392;2023-12-22T12:31:06;10.90;99.90
43679;DHT22;29279;50.858;4.392;2023-12-22T12:33:32;11.00;99.90
43679;DHT22;29279;50.858;4.392;2023-12-22T12:36:00;11.10;99.90
43679;DHT22;29279;50.858;4.392;2023-12-22T12:41:30;11.10;99.90
43679;DHT22;29279;50.858;4.392;2023-12-22T12:44:03;11.00;99.90
43679;DHT22;29279;50.858;4.392;2023-12-22T12:46:40;11.00;99.90
43679;DHT22;29279;50.858;4.392;2023-12-22T12:49:10;11.00;99.90
43679;DHT22;29279;50.858;4.392;2023-12-22T12:51:42;11.00;99.90
43679;DHT22;29279;50.858;4.392;2023-12-22T12:54:08;11.00;99.90
43679;DHT22;29279;50.858;4.392;2023-12-22T12:56:42;10.90;99.90
43679;DHT22;29279;50.858;4.392;2023-12-22T12:59:12;10.90;99.90
43679;DHT22;29279;50.858;4.392;2023-12-22T13:01:46;10.90;99.90
43679;DHT22;29279;50.858;4.392;2023-12-22T13:04:12;10.90;99.90
43679;DHT22;29279;50.858;4.392;2023-12-22T13:06:48;10.90;99.90
43679;DHT22;29279;50.858;4.392;2023-12-22T13:09:15;10.80;99.90
43679;DHT22;29279;50.858;4.392;2023-12-22T13:11:42;10.80;99.90
43679;DHT22;29279;50.858;4.392;2023-12-22T13:14:09;10.90;99.90
43679;DHT22;29279;50.858;4.392;2023-12-22T13:16:34;10.90;99.90
43679;DHT22;29279;50.858;4.392;2023-12-22T13:19:00;10.90;99.90
43679;DHT22;29279;50.858;4.392;2023-12-22T13:21:28;10.80;99.90
43679;DHT22;29279;50.858;4.392;2023-12-22T13:24:11;10.90;99.90
43679;DHT22;29279;50.858;4.392;2023-12-22T13:26:37;10.90;99.90
43679;DHT22;29279;50.858;4.392;2023-12-22T13:29:04;10.90;99.90
43679;DHT22;29279;50.858;4.392;2023-12-22T13:31:31;10.90;99.90
43679;DHT22;29279;50.858;4.392;2023-12-22T13:34:00;10.80;99.90
43679;DHT22;29279;50.858;4.392;2023-12-22T13:36:26;10.80;99.90
43679;DHT22;29279;50.858;4.392;2023-12-22T13:38:52;10.90;99.90
43679;DHT22;29279;50.858;4.392;2023-12-22T13:41:18;10.90;99.90
43679;DHT22;29279;50.858;4.392;2023-12-22T13:43:44;10.90;99.90
43679;DHT22;29279;50.858;4.392;2023-12-22T13:46:13;10.90;99.90
43679;DHT22;29279;50.858;4.392;2023-12-22T13:48:43;10.90;99.90
43679;DHT22;29279;50.858;4.392;2023-12-22T13:51:09;10.90;99.90
43679;DHT22;29279;50.858;4.392;2023-12-22T13:53:46;11.00;99.90
43679;DHT22;29279;50.858;4.392;2023-12-22T13:56:11;11.00;99.90
43679;DHT22;29279;50.858;4.392;2023-12-22T13:58:47;10.90;99.90
43679;DHT22;29279;50.858;4.392;2023-12-22T14:01:13;11.00;99.90
43679;DHT22;29279;50.858;4.392;2023-12-22T14:03:41;10.90;99.90
43679;DHT22;29279;50.858;4.392;2023-12-22T14:06:07;10.90;99.90
43679;DHT22;29279;50.858;4.392;2023-12-22T14:08:38;10.80;99.90
43679;DHT22;29279;50.858;4.392;2023-12-22T14:11:04;10.90;99.90
43679;DHT22;29279;50.858;4.392;2023-12-22T14:13:30;10.90;99.90
43679;DHT22;29279;50.858;4.392;2023-12-22T14:15:57;10.90;99.90
43679;DHT22;29279;50.858;4.392;2023-12-22T14:18:22;10.90;99.90
43679;DHT22;29279;50.858;4.392;2023-12-22T14:20:48;10.90;99.90
43679;DHT22;29279;50.858;4.392;2023-12-22T14:23:14;10.90;99.90
43679;DHT22;29279;50.858;4.392;2023-12-22T14:25:42;10.90;99.90
43679;DHT22;29279;50.858;4.392;2023-12-22T14:28:08;10.90;99.90
43679;DHT22;29279;50.858;4.392;2023-12-22T14:30:34;10.90;99.90
43679;DHT22;29279;50.858;4.392;2023-12-22T14:33:00;10.90;99.90
43679;DHT22;29279;50.858;4.392;2023-12-22T14:35:25;10.90;99.90
43679;DHT22;29279;50.858;4.392;2023-12-22T14:37:51;10.90;99.90
43679;DHT22;29279;50.858;4.392;2023-12-22T14:40:17;10.90;99.90
43679;DHT22;29279;50.858;4.392;2023-12-22T14:42:42;10.90;99.90
43679;DHT22;29279;50.858;4.392;2023-12-22T14:45:08;10.90;99.90
43679;DHT22;29279;50.858;4.392;2023-12-22T14:47:34;10.90;99.90
43679;DHT22;29279;50.858;4.392;2023-12-22T14:50:01;10.90;99.90
43679;DHT22;29279;50.858;4.392;2023-12-22T14:52:32;10.90;99.90
43679;DHT22;29279;50.858;4.392;2023-12-22T14:54:59;10.90;99.90
43679;DHT22;29279;50.858;4.392;2023-12-22T14:57:24;11.00;99.90
43679;DHT22;29279;50.858;4.392;2023-12-22T14:59:50;11.00;99.90
43679;DHT22;29279;50.858;4.392;2023-12-22T15:02:16;11.10;99.90
43679;DHT22;29279;50.858;4.392;2023-12-22T15:04:41;11.10;99.90
43679;DHT22;29279;50.858;4.392;2023-12-22T15:07:07;11.10;99.90
43679;DHT22;29279;50.858;4.392;2023-12-22T15:09:33;11.10;99.90
43679;DHT22;29279;50.858;4.392;2023-12-22T15:12:00;11.10;99.90
43679;DHT22;29279;50.858;4.392;2023-12-22T15:14:26;11.10;99.90
43679;DHT22;29279;50.858;4.392;2023-12-22T15:16:51;11.10;99.90
43679;DHT22;29279;50.858;4.392;2023-12-22T15:19:17;11.10;99.90
43679;DHT22;29279;50.858;4.392;2023-12-22T15:21:43;11.10;99.90
43679;DHT22;29279;50.858;4.392;2023-12-22T15:24:09;11.10;99.90
43679;DHT22;29279;50.858;4.392;2023-12-22T15:26:35;11.10;99.90
43679;DHT22;29279;50.858;4.392;2023-12-22T15:29:03;11.10;99.90
43679;DHT22;29279;50.858;4.392;2023-12-22T15:31:29;11.00;99.90
43679;DHT22;29279;50.858;4.392;2023-12-22T15:33:58;11.00;99.90
43679;DHT22;29279;50.858;4.392;2023-12-22T15:36:25;11.10;99.90
43679;DHT22;29279;50.858;4.392;2023-12-22T15:38:53;11.10;99.90
43679;DHT22;29279;50.858;4.392;2023-12-22T15:41:19;11.10;99.90
43679;DHT22;29279;50.858;4.392;2023-12-22T15:43:45;11.10;99.90